Time;durP1;ratioP1;P1;durP2;ratioP2;P2;SDS_P1;SDS_P2;PMS_P1;PMS_P2;Temp;Humidity;BMP_temperature;BMP_pressure;BME280_temperature;BME280_humidity;BME280_pressure;Samples;Min_cycle;Max_cycle;Signal;HPM_P1;HPM_P2
2021/10/05 00:01:10;;;;;;;6.65;3.13;;;;;;;;;;5111069;28;20391;-66
2021/10/05 00:03:37;;;;;;;6.20;3.22;;;;;;;;;;5109651;28;20016;-65
2021/10/05 00:06:03;;;;;;;8.18;3.55;;;;;;;;;;5108721;28;20047;-65
2021/10/05 00:08:29;;;;;;;9.70;3.38;;;;;;;;;;5109561;28;20425;-65
2021/10/05 00:10:55;;;;;;;8.63;3.38;;;;;;;;;;5111011;28;20027;-66
2021/10/05 00:13:22;;;;;;;7.70;4.30;;;;;;;;;;5110561;28;20034;-65
2021/10/05 00:15:48;;;;;;;6.60;2.97;;;;;;;;;;5109277;28;20072;-65
2021/10/05 00:18:14;;;;;;;11.52;4.35;;;;;;;;;;5109133;28;20023;-65
2021/10/05 00:20:40;;;;;;;7.38;3.45;;;;;;;;;;5108964;28;20027;-65
2021/10/05 00:23:06;;;;;;;7.90;3.10;;;;;;;;;;5109919;28;20073;-65
2021/10/05 00:25:32;;;;;;;5.00;2.30;;;;;;;;;;5110791;28;20028;-65
2021/10/05 00:27:58;;;;;;;4.07;2.25;;;;;;;;;;5109241;28;20098;-64
2021/10/05 00:30:24;;;;;;;6.03;2.15;;;;;;;;;;5108890;28;20127;-65
2021/10/05 00:32:50;;;;;;;3.78;1.95;;;;;;;;;;5108918;28;20028;-65
2021/10/05 00:35:16;;;;;;;4.82;1.75;;;;;;;;;;5108832;28;20385;-65
2021/10/05 00:37:42;;;;;;;6.22;2.13;;;;;;;;;;5112809;28;20031;-65
2021/10/05 00:40:09;;;;;;;3.83;1.65;;;;;;;;;;5108274;28;20032;-65
2021/10/05 00:42:35;;;;;;;6.88;2.70;;;;;;;;;;5108735;28;20019;-66
2021/10/05 00:45:01;;;;;;;10.32;2.88;;;;;;;;;;5108500;28;20024;-66
2021/10/05 00:47:27;;;;;;;8.60;3.03;;;;;;;;;;5107899;28;20077;-66
2021/10/05 00:49:53;;;;;;;5.50;2.30;;;;;;;;;;5111223;28;20478;-65
2021/10/05 00:52:20;;;;;;;4.88;1.67;;;;;;;;;;5109774;28;20028;-65
2021/10/05 00:54:47;;;;;;;4.88;1.45;;;;;;;;;;5108451;28;20038;-65
2021/10/05 00:57:13;;;;;;;3.05;1.25;;;;;;;;;;5108949;28;20020;-65
2021/10/05 00:59:39;;;;;;;4.95;1.50;;;;;;;;;;5109042;28;20030;-64
2021/10/05 01:02:06;;;;;;;2.92;1.30;;;;;;;;;;5109975;28;20112;-64
2021/10/05 01:04:32;;;;;;;3.72;1.42;;;;;;;;;;5111056;28;20103;-64
2021/10/05 01:07:00;;;;;;;2.92;1.40;;;;;;;;;;5108207;28;20164;-65
2021/10/05 01:09:26;;;;;;;2.80;1.38;;;;;;;;;;5108871;28;20023;-64
2021/10/05 01:11:53;;;;;;;4.65;1.15;;;;;;;;;;5108409;28;20125;-65
2021/10/05 01:14:19;;;;;;;4.75;1.35;;;;;;;;;;5108938;28;20034;-64
2021/10/05 01:16:45;;;;;;;3.45;1.50;;;;;;;;;;5111933;28;20028;-65
2021/10/05 01:19:11;;;;;;;6.38;2.03;;;;;;;;;;5110190;28;20191;-65
2021/10/05 01:21:37;;;;;;;5.72;1.98;;;;;;;;;;5108039;28;20387;-65
2021/10/05 01:24:14;;;;;;;11.40;2.28;;;;;;;;;;5108417;28;20031;-65
2021/10/05 01:26:40;;;;;;;4.30;1.83;;;;;;;;;;5108573;28;20088;-65
2021/10/05 01:29:06;;;;;;;6.53;1.10;;;;;;;;;;5109804;28;20036;-65
2021/10/05 01:31:34;;;;;;;2.47;0.90;;;;;;;;;;5110556;28;20048;-64
2021/10/05 01:34:00;;;;;;;3.92;1.10;;;;;;;;;;5110489;28;20081;-64
2021/10/05 01:36:26;;;;;;;1.90;0.90;;;;;;;;;;5112333;28;20023;-65
2021/10/05 01:38:52;;;;;;;2.17;1.05;;;;;;;;;;5112516;28;20425;-64
2021/10/05 01:41:18;;;;;;;1.42;0.68;;;;;;;;;;5112463;28;20020;-64
2021/10/05 01:43:44;;;;;;;1.50;0.70;;;;;;;;;;5115928;28;20071;-64
2021/10/05 01:46:14;;;;;;;1.77;0.65;;;;;;;;;;5111463;28;20034;-64
2021/10/05 01:48:43;;;;;;;1.63;0.80;;;;;;;;;;5112390;28;20017;-64
2021/10/05 01:51:10;;;;;;;3.03;0.63;;;;;;;;;;5111888;28;20024;-64
2021/10/05 01:53:36;;;;;;;1.85;0.60;;;;;;;;;;5112244;28;20028;-64
2021/10/05 01:56:02;;;;;;;1.10;0.60;;;;;;;;;;5114004;28;20116;-64
2021/10/05 01:58:28;;;;;;;2.35;0.98;;;;;;;;;;5112825;28;20066;-65
2021/10/05 02:00:54;;;;;;;2.53;0.88;;;;;;;;;;5111899;28;20479;-65
2021/10/05 02:03:20;;;;;;;3.60;1.13;;;;;;;;;;5111751;28;20360;-65
2021/10/05 02:05:46;;;;;;;3.55;1.50;;;;;;;;;;5111674;28;20147;-65
2021/10/05 02:08:12;;;;;;;6.57;1.35;;;;;;;;;;5112021;28;20374;-64
2021/10/05 02:10:38;;;;;;;3.45;1.00;;;;;;;;;;5114744;28;20031;-64
2021/10/05 02:13:07;;;;;;;2.80;1.00;;;;;;;;;;5111497;28;20544;-65
2021/10/05 02:15:35;;;;;;;3.15;1.10;;;;;;;;;;5111703;28;20024;-65
2021/10/05 02:18:01;;;;;;;6.90;1.30;;;;;;;;;;5111352;27;20059;-64
2021/10/05 02:20:27;;;;;;;3.08;0.85;;;;;;;;;;5111477;28;20097;-64
2021/10/05 02:22:53;;;;;;;2.80;0.70;;;;;;;;;;5113733;28;20467;-64
2021/10/05 02:25:19;;;;;;;2.83;0.82;;;;;;;;;;5112723;28;20019;-64
2021/10/05 02:27:45;;;;;;;1.95;0.77;;;;;;;;;;5111508;28;20035;-64
2021/10/05 02:30:12;;;;;;;1.15;0.60;;;;;;;;;;5110800;28;20103;-64
2021/10/05 02:32:39;;;;;;;2.75;0.73;;;;;;;;;;5111065;28;20027;-64
2021/10/05 02:35:06;;;;;;;0.75;0.40;;;;;;;;;;5112474;28;20045;-64
2021/10/05 02:37:32;;;;;;;2.00;0.73;;;;;;;;;;5113613;28;20550;-63
2021/10/05 02:39:59;;;;;;;3.08;0.77;;;;;;;;;;5111170;28;20030;-63
2021/10/05 02:42:25;;;;;;;4.60;1.20;;;;;;;;;;5110562;28;20020;-64
2021/10/05 02:44:53;;;;;;;2.97;1.17;;;;;;;;;;5109905;28;20031;-64
2021/10/05 02:47:19;;;;;;;4.95;1.02;;;;;;;;;;5111084;28;20466;-64
2021/10/05 02:49:45;;;;;;;10.32;1.33;;;;;;;;;;5114350;28;20035;-64
2021/10/05 02:52:12;;;;;;;6.28;1.30;;;;;;;;;;5112857;28;20026;-65
2021/10/05 02:54:38;;;;;;;3.40;1.08;;;;;;;;;;5110759;28;20034;-64
2021/10/05 02:57:05;;;;;;;2.90;1.10;;;;;;;;;;5110460;28;20103;-64
2021/10/05 02:59:31;;;;;;;5.82;1.30;;;;;;;;;;5109750;28;20024;-64
2021/10/05 03:01:57;;;;;;;5.07;1.10;;;;;;;;;;5113196;28;20027;-64
2021/10/05 03:04:23;;;;;;;2.28;1.10;;;;;;;;;;5111652;28;20024;-64
2021/10/05 03:06:49;;;;;;;3.60;0.93;;;;;;;;;;5110185;28;20444;-64
2021/10/05 03:09:15;;;;;;;5.63;1.10;;;;;;;;;;5110298;28;20020;-64
2021/10/05 03:11:41;;;;;;;5.43;1.35;;;;;;;;;;5110828;28;20019;-65
2021/10/05 03:14:07;;;;;;;3.75;1.25;;;;;;;;;;5111494;28;20110;-64
2021/10/05 03:16:33;;;;;;;3.47;1.05;;;;;;;;;;5113093;28;20020;-63
2021/10/05 03:18:59;;;;;;;5.45;1.30;;;;;;;;;;5104035;28;20027;-63
2021/10/05 03:21:25;;;;;;;3.20;1.02;;;;;;;;;;5109764;28;20023;-63
2021/10/05 03:23:51;;;;;;;2.70;1.08;;;;;;;;;;5110430;28;20471;-63
2021/10/05 03:26:17;;;;;;;5.75;1.38;;;;;;;;;;5109592;28;20035;-63
2021/10/05 03:28:44;;;;;;;3.72;1.17;;;;;;;;;;5113896;28;20016;-63
2021/10/05 03:31:13;;;;;;;3.08;1.00;;;;;;;;;;5109602;28;20075;-63
2021/10/05 03:33:40;;;;;;;2.58;1.17;;;;;;;;;;5109984;28;20028;-63
2021/10/05 03:36:06;;;;;;;5.18;1.10;;;;;;;;;;5110138;28;20102;-63
2021/10/05 03:38:32;;;;;;;3.33;0.93;;;;;;;;;;5109871;28;20097;-63
2021/10/05 03:40:58;;;;;;;5.55;1.10;;;;;;;;;;5111975;28;20388;-65
2021/10/05 03:43:24;;;;;;;3.35;1.08;;;;;;;;;;5111099;28;20080;-63
2021/10/05 03:45:51;;;;;;;2.30;1.10;;;;;;;;;;5109869;28;20050;-63
2021/10/05 03:48:17;;;;;;;5.35;1.73;;;;;;;;;;5109651;28;20034;-63
2021/10/05 03:50:43;;;;;;;3.13;1.10;;;;;;;;;;5109894;28;20032;-63
2021/10/05 03:53:10;;;;;;;5.30;1.30;;;;;;;;;;5109735;28;20024;-63
2021/10/05 03:55:36;;;;;;;5.63;1.10;;;;;;;;;;5112662;28;20051;-63
2021/10/05 03:58:02;;;;;;;3.83;1.13;;;;;;;;;;5109828;28;20063;-63
2021/10/05 04:00:29;;;;;;;4.70;1.10;;;;;;;;;;5109366;28;20436;-63
2021/10/05 04:02:56;;;;;;;5.03;1.40;;;;;;;;;;5109104;28;20386;-63
2021/10/05 04:05:22;;;;;;;4.75;1.30;;;;;;;;;;5109076;28;20024;-63
2021/10/05 04:07:48;;;;;;;5.88;1.70;;;;;;;;;;5112359;28;20034;-64
2021/10/05 04:10:14;;;;;;;4.28;1.02;;;;;;;;;;5110237;28;20480;-63
2021/10/05 04:12:40;;;;;;;6.05;1.52;;;;;;;;;;5109131;28;20066;-64
2021/10/05 04:15:06;;;;;;;4.38;0.90;;;;;;;;;;5109391;28;20068;-64
2021/10/05 04:17:32;;;;;;;2.67;1.10;;;;;;;;;;5108855;28;20028;-64
2021/10/05 04:19:58;;;;;;;7.60;2.47;;;;;;;;;;5110432;28;20390;-64
2021/10/05 04:22:24;;;;;;;5.35;1.60;;;;;;;;;;5110089;28;20027;-64
2021/10/05 04:24:50;;;;;;;5.90;1.48;;;;;;;;;;5109223;28;20102;-64
2021/10/05 04:27:16;;;;;;;3.42;1.30;;;;;;;;;;5109150;28;20043;-63
2021/10/05 04:29:42;;;;;;;2.78;1.10;;;;;;;;;;5108430;28;20031;-63
2021/10/05 04:32:09;;;;;;;3.63;0.90;;;;;;;;;;5110288;28;20051;-63
2021/10/05 04:34:35;;;;;;;3.65;1.30;;;;;;;;;;5112491;28;20096;-63
2021/10/05 04:37:01;;;;;;;2.85;1.00;;;;;;;;;;5108970;28;20032;-64
2021/10/05 04:39:28;;;;;;;4.78;1.15;;;;;;;;;;5108434;28;20058;-63
2021/10/05 04:41:54;;;;;;;7.35;1.20;;;;;;;;;;5109034;28;20110;-63
2021/10/05 04:44:20;;;;;;;4.82;1.27;;;;;;;;;;5108396;28;20105;-64
2021/10/05 04:46:46;;;;;;;7.15;1.20;;;;;;;;;;5112018;28;20063;-63
2021/10/05 04:49:12;;;;;;;6.05;1.10;;;;;;;;;;5109086;28;20027;-63
2021/10/05 04:51:38;;;;;;;2.10;0.95;;;;;;;;;;5108350;28;20067;-64
2021/10/05 04:54:04;;;;;;;4.32;1.30;;;;;;;;;;5108885;28;20034;-64
2021/10/05 04:56:30;;;;;;;5.93;1.63;;;;;;;;;;5108910;28;20032;-64
2021/10/05 04:58:56;;;;;;;3.75;1.08;;;;;;;;;;5110888;28;20023;-64
2021/10/05 05:01:22;;;;;;;2.63;1.13;;;;;;;;;;5109941;28;20051;-64
2021/10/05 05:03:47;;;;;;;4.88;1.38;;;;;;;;;;5108885;28;20368;-64
2021/10/05 05:06:13;;;;;;;6.13;1.40;;;;;;;;;;5108264;28;20046;-64
2021/10/05 05:08:40;;;;;;;3.20;0.77;;;;;;;;;;5110697;28;20051;-64
2021/10/05 05:11:05;;;;;;;2.17;1.05;;;;;;;;;;5114297;28;20039;-64
2021/10/05 05:13:31;;;;;;;2.30;1.00;;;;;;;;;;5113549;28;20039;-64
2021/10/05 05:15:57;;;;;;;2.97;1.15;;;;;;;;;;5107172;28;20131;-64
2021/10/05 05:18:23;;;;;;;2.42;1.00;;;;;;;;;;5112152;28;20020;-62
2021/10/05 05:20:49;;;;;;;4.55;1.30;;;;;;;;;;5112276;28;20542;-63
2021/10/05 05:23:15;;;;;;;5.05;1.30;;;;;;;;;;5112614;28;20102;-63
2021/10/05 05:25:41;;;;;;;2.97;1.30;;;;;;;;;;5111644;28;20581;-64
2021/10/05 05:28:09;;;;;;;5.68;1.55;;;;;;;;;;5112113;28;20026;-63
2021/10/05 05:30:35;;;;;;;2.70;0.88;;;;;;;;;;5112010;28;20410;-63
2021/10/05 05:33:01;;;;;;;2.95;0.70;;;;;;;;;;5112533;28;20110;-63
2021/10/05 05:35:27;;;;;;;1.35;0.45;;;;;;;;;;5112813;28;20020;-64
2021/10/05 05:37:53;;;;;;;1.42;0.75;;;;;;;;;;5114924;28;20061;-63
2021/10/05 05:40:19;;;;;;;4.22;1.10;;;;;;;;;;5112944;28;20016;-63
2021/10/05 05:42:45;;;;;;;5.20;1.00;;;;;;;;;;5111992;28;20494;-63
2021/10/05 05:45:12;;;;;;;3.05;1.23;;;;;;;;;;5109083;28;20063;-64
2021/10/05 05:47:38;;;;;;;2.38;1.30;;;;;;;;;;5105677;28;20071;-64
2021/10/05 05:50:05;;;;;;;4.00;1.25;;;;;;;;;;5106027;28;20020;-63
2021/10/05 05:52:32;;;;;;;4.97;1.20;;;;;;;;;;5101887;28;20028;-63
2021/10/05 05:54:58;;;;;;;5.82;1.30;;;;;;;;;;5107460;28;20031;-63
2021/10/05 05:57:24;;;;;;;7.25;2.00;;;;;;;;;;5107406;28;20097;-64
2021/10/05 05:59:50;;;;;;;6.13;1.42;;;;;;;;;;5104604;28;20151;-63
2021/10/05 06:02:16;;;;;;;4.43;1.45;;;;;;;;;;5106574;28;20570;-63
2021/10/05 06:04:42;;;;;;;4.47;1.20;;;;;;;;;;5105838;28;20074;-62
2021/10/05 06:07:08;;;;;;;5.03;1.38;;;;;;;;;;5111227;28;20035;-64
2021/10/05 06:09:35;;;;;;;4.47;1.33;;;;;;;;;;5111763;28;20030;-65
2021/10/05 06:12:04;;;;;;;6.05;1.20;;;;;;;;;;5111561;28;20387;-64
2021/10/05 06:14:30;;;;;;;3.40;1.40;;;;;;;;;;5111566;28;20223;-64
2021/10/05 06:17:01;;;;;;;7.93;1.58;;;;;;;;;;5114213;28;20034;-64
2021/10/05 06:19:27;;;;;;;3.78;1.33;;;;;;;;;;5111876;28;20447;-64
2021/10/05 06:21:53;;;;;;;3.35;1.00;;;;;;;;;;5111505;28;20050;-64
2021/10/05 06:24:19;;;;;;;3.97;1.10;;;;;;;;;;5111424;28;20340;-63
2021/10/05 06:26:46;;;;;;;5.28;1.65;;;;;;;;;;5111043;28;20070;-64
2021/10/05 06:29:12;;;;;;;6.35;1.15;;;;;;;;;;5111730;28;20027;-64
2021/10/05 06:31:38;;;;;;;8.30;1.40;;;;;;;;;;5114402;28;20055;-64
2021/10/05 06:34:04;;;;;;;5.47;1.70;;;;;;;;;;5110901;28;20073;-62
2021/10/05 06:36:30;;;;;;;6.53;1.77;;;;;;;;;;5110670;28;20034;-64
2021/10/05 06:38:56;;;;;;;3.47;1.60;;;;;;;;;;5110987;28;20032;-64
2021/10/05 06:41:22;;;;;;;5.20;2.00;;;;;;;;;;5110978;28;20032;-64
2021/10/05 06:43:49;;;;;;;7.00;2.50;;;;;;;;;;5114074;28;20026;-63
2021/10/05 06:46:14;;;;;;;8.32;2.30;;;;;;;;;;5111953;28;20044;-70
2021/10/05 06:48:41;;;;;;;7.78;1.55;;;;;;;;;;5108979;28;20101;-69
2021/10/05 06:51:07;;;;;;;7.03;1.92;;;;;;;;;;5109507;28;20057;-69
2021/10/05 06:53:33;;;;;;;4.72;1.65;;;;;;;;;;5109395;28;20558;-70
2021/10/05 06:55:59;;;;;;;4.20;1.67;;;;;;;;;;5111297;28;20386;-70
2021/10/05 06:58:25;;;;;;;2.75;1.45;;;;;;;;;;5110598;28;20424;-70
2021/10/05 07:00:51;;;;;;;6.63;1.75;;;;;;;;;;5109043;28;20023;-70
2021/10/05 07:03:18;;;;;;;5.70;1.65;;;;;;;;;;5110290;28;20388;-70
2021/10/05 07:05:44;;;;;;;3.38;1.67;;;;;;;;;;5110813;28;20020;-69
2021/10/05 07:08:10;;;;;;;4.72;1.70;;;;;;;;;;5111449;28;20038;-69
2021/10/05 07:10:37;;;;;;;8.38;2.25;;;;;;;;;;5113119;28;20023;-70
2021/10/05 07:13:04;;;;;;;6.15;2.13;;;;;;;;;;5110326;28;20039;-69
2021/10/05 07:15:30;;;;;;;6.68;2.47;;;;;;;;;;5110511;28;20049;-69
2021/10/05 07:17:56;;;;;;;9.48;2.20;;;;;;;;;;5110467;28;20028;-68
2021/10/05 07:20:22;;;;;;;4.85;1.80;;;;;;;;;;5110377;28;20107;-68
2021/10/05 07:22:48;;;;;;;5.40;2.42;;;;;;;;;;5113509;28;20024;-68
2021/10/05 07:25:14;;;;;;;5.05;2.20;;;;;;;;;;5109481;28;20047;-68
2021/10/05 07:27:45;;;;;;;9.13;2.80;;;;;;;;;;5110278;28;20421;-68
2021/10/05 07:30:12;;;;;;;5.50;2.50;;;;;;;;;;5110148;28;20019;-68
2021/10/05 07:32:38;;;;;;;7.53;2.25;;;;;;;;;;5110411;28;20063;-69
2021/10/05 07:35:04;;;;;;;8.02;2.20;;;;;;;;;;5111773;28;20077;-68
2021/10/05 07:37:30;;;;;;;4.07;1.95;;;;;;;;;;5111645;28;20039;-68
2021/10/05 07:39:57;;;;;;;8.20;1.70;;;;;;;;;;5108191;28;20364;-68
2021/10/05 07:42:23;;;;;;;11.90;1.90;;;;;;;;;;5108369;28;20059;-68
2021/10/05 07:44:49;;;;;;;4.68;1.50;;;;;;;;;;5108043;28;20028;-69
2021/10/05 07:47:16;;;;;;;4.68;1.70;;;;;;;;;;5108289;28;20034;-68
2021/10/05 07:49:42;;;;;;;5.63;2.03;;;;;;;;;;5106992;28;20425;-68
2021/10/05 07:52:08;;;;;;;8.40;2.15;;;;;;;;;;5108094;28;20084;-68
2021/10/05 07:54:34;;;;;;;6.13;2.10;;;;;;;;;;5109028;28;20063;-68
2021/10/05 07:57:00;;;;;;;4.25;1.60;;;;;;;;;;5110042;28;20462;-68
2021/10/05 07:59:26;;;;;;;4.18;1.55;;;;;;;;;;5109457;28;20015;-68
2021/10/05 08:01:53;;;;;;;1.60;0.82;;;;;;;;;;5112432;28;20557;-68
2021/10/05 08:04:19;;;;;;;5.00;1.80;;;;;;;;;;5111826;28;20378;-68
2021/10/05 08:06:45;;;;;;;2.67;1.58;;;;;;;;;;5109669;28;20323;-68
2021/10/05 08:09:14;;;;;;;8.25;1.83;;;;;;;;;;5108936;28;20061;-68
2021/10/05 08:11:40;;;;;;;7.03;1.95;;;;;;;;;;5109444;27;20015;-68
2021/10/05 08:14:06;;;;;;;5.57;1.60;;;;;;;;;;5111172;28;20418;-68
2021/10/05 08:16:32;;;;;;;7.57;2.00;;;;;;;;;;5111810;28;20023;-68
2021/10/05 08:18:59;;;;;;;13.68;2.10;;;;;;;;;;5109496;28;20035;-68
2021/10/05 08:21:25;;;;;;;4.18;2.10;;;;;;;;;;5109546;28;20406;-68
2021/10/05 08:23:52;;;;;;;4.63;1.70;;;;;;;;;;5108445;28;20023;-68
2021/10/05 08:26:18;;;;;;;4.55;2.00;;;;;;;;;;5109128;28;20042;-68
2021/10/05 08:28:45;;;;;;;4.05;1.60;;;;;;;;;;5112981;28;20023;-69
2021/10/05 08:31:11;;;;;;;3.40;1.67;;;;;;;;;;5109167;28;20545;-68
2021/10/05 08:33:37;;;;;;;10.32;2.08;;;;;;;;;;5103411;28;20110;-68
2021/10/05 08:36:03;;;;;;;5.30;1.67;;;;;;;;;;5108913;28;20035;-68
2021/10/05 08:38:29;;;;;;;3.88;1.95;;;;;;;;;;5108507;28;20025;-68
2021/10/05 08:40:55;;;;;;;10.57;4.88;;;;;;;;;;5111566;28;20028;-68
2021/10/05 08:43:22;;;;;;;6.55;2.42;;;;;;;;;;5108959;28;20485;-68
2021/10/05 08:45:48;;;;;;;9.95;2.90;;;;;;;;;;5109128;28;20031;-68
2021/10/05 08:48:15;;;;;;;5.63;2.65;;;;;;;;;;5103289;28;20399;-69
2021/10/05 08:50:42;;;;;;;6.53;3.10;;;;;;;;;;5108832;28;20015;-68
2021/10/05 08:53:08;;;;;;;8.40;3.30;;;;;;;;;;5110085;28;20027;-68
2021/10/05 08:55:34;;;;;;;15.75;7.53;;;;;;;;;;5110828;28;20027;-68
2021/10/05 08:58:00;;;;;;;40.53;23.08;;;;;;;;;;5108849;28;20027;-68
2021/10/05 09:00:30;;;;;;;15.73;9.90;;;;;;;;;;5108515;28;20023;-68
2021/10/05 09:02:56;;;;;;;10.77;3.65;;;;;;;;;;5108889;28;20032;-68
2021/10/05 09:05:22;;;;;;;10.23;4.35;;;;;;;;;;5108390;28;20103;-68
2021/10/05 09:07:49;;;;;;;11.23;4.60;;;;;;;;;;5111983;28;20055;-68
2021/10/05 09:10:16;;;;;;;5.68;2.80;;;;;;;;;;5109246;28;20099;-68
2021/10/05 09:12:42;;;;;;;8.85;2.60;;;;;;;;;;5108190;28;20591;-68
2021/10/05 09:15:10;;;;;;;6.72;2.70;;;;;;;;;;5108742;28;20023;-69
2021/10/05 09:17:36;;;;;;;10.68;3.10;;;;;;;;;;5108334;28;20024;-68
2021/10/05 09:20:03;;;;;;;7.28;2.70;;;;;;;;;;5109251;28;20089;-68
2021/10/05 09:22:30;;;;;;;9.35;3.30;;;;;;;;;;5110418;28;20106;-68
2021/10/05 09:24:57;;;;;;;8.57;3.47;;;;;;;;;;5108550;28;20024;-68
2021/10/05 09:27:23;;;;;;;12.23;4.35;;;;;;;;;;5107818;28;20100;-68
2021/10/05 09:29:50;;;;;;;9.63;3.50;;;;;;;;;;5108517;28;20027;-68
2021/10/05 09:32:19;;;;;;;6.88;3.08;;;;;;;;;;5108779;28;20064;-68
2021/10/05 09:34:55;;;;;;;10.02;4.57;;;;;;;;;;5107857;28;20383;-68
2021/10/05 09:37:25;;;;;;;8.98;3.38;;;;;;;;;;5109935;28;20505;-68
2021/10/05 09:39:55;;;;;;;9.32;2.88;;;;;;;;;;5108269;28;20078;-69
2021/10/05 09:42:27;;;;;;;9.50;3.17;;;;;;;;;;5107639;28;20024;-68
2021/10/05 09:44:58;;;;;;;9.13;3.20;;;;;;;;;;5108242;28;20027;-70
2021/10/05 09:47:30;;;;;;;9.43;3.50;;;;;;;;;;5107917;28;20455;-69
2021/10/05 09:49:56;;;;;;;6.95;3.20;;;;;;;;;;5110395;28;20019;-67
2021/10/05 09:52:22;;;;;;;11.27;3.60;;;;;;;;;;5109410;28;20432;-69
2021/10/05 09:54:49;;;;;;;12.55;6.25;;;;;;;;;;5109697;28;20066;-67
2021/10/05 09:57:15;;;;;;;12.13;3.95;;;;;;;;;;5111716;28;20462;-67
2021/10/05 09:59:41;;;;;;;10.82;3.20;;;;;;;;;;5112248;28;20108;-67
2021/10/05 10:02:11;;;;;;;11.88;4.10;;;;;;;;;;5106136;28;20063;-67
2021/10/05 10:04:37;;;;;;;8.45;3.53;;;;;;;;;;5103945;28;20080;-67
2021/10/05 10:07:03;;;;;;;8.10;3.40;;;;;;;;;;5103860;28;20561;-67
2021/10/05 10:09:29;;;;;;;11.93;3.63;;;;;;;;;;5104090;28;20028;-67
2021/10/05 10:11:55;;;;;;;10.60;3.75;;;;;;;;;;5104042;28;20036;-67
2021/10/05 10:14:22;;;;;;;7.90;3.85;;;;;;;;;;5105271;28;20020;-67
2021/10/05 10:16:48;;;;;;;12.65;6.07;;;;;;;;;;5103331;28;20024;-68
2021/10/05 10:19:24;;;;;;;11.77;4.50;;;;;;;;;;5103496;28;20020;-67
2021/10/05 10:21:50;;;;;;;8.43;3.78;;;;;;;;;;5103942;28;20031;-67
2021/10/05 10:24:18;;;;;;;7.35;3.15;;;;;;;;;;5104440;28;20103;-68
2021/10/05 10:26:48;;;;;;;8.25;3.65;;;;;;;;;;5103039;28;20028;-67
2021/10/05 10:29:25;;;;;;;9.93;3.60;;;;;;;;;;5104699;28;20022;-69
2021/10/05 10:31:51;;;;;;;9.77;4.28;;;;;;;;;;5099027;28;20075;-67
2021/10/05 10:34:21;;;;;;;11.27;4.55;;;;;;;;;;5093163;28;20035;-67
2021/10/05 10:36:48;;;;;;;9.23;4.60;;;;;;;;;;5090850;28;20025;-69
2021/10/05 10:39:18;;;;;;;12.23;5.20;;;;;;;;;;5101929;28;20034;-69
2021/10/05 10:41:46;;;;;;;10.95;5.10;;;;;;;;;;5092667;28;20039;-67
2021/10/05 10:44:14;;;;;;;12.02;5.35;;;;;;;;;;5099691;28;20552;-66
2021/10/05 10:46:40;;;;;;;11.10;5.28;;;;;;;;;;5093582;28;20165;-67
2021/10/05 10:49:14;;;;;;;18.95;7.53;;;;;;;;;;5108440;28;20035;-67
2021/10/05 10:51:40;;;;;;;13.23;5.93;;;;;;;;;;5103601;28;20104;-67
2021/10/05 10:54:17;;;;;;;12.43;5.00;;;;;;;;;;5099465;28;20027;-67
2021/10/05 10:56:44;;;;;;;11.35;5.55;;;;;;;;;;5086694;28;20043;-67
2021/10/05 10:59:12;;;;;;;24.50;17.23;;;;;;;;;;5100748;28;20016;-67
2021/10/05 11:01:43;;;;;;;14.75;7.38;;;;;;;;;;5111395;28;20060;-67
2021/10/05 11:04:10;;;;;;;13.32;6.18;;;;;;;;;;5103099;28;20497;-67
2021/10/05 11:06:36;;;;;;;11.60;4.97;;;;;;;;;;5109509;28;20390;-67
2021/10/05 11:09:03;;;;;;;39.53;25.10;;;;;;;;;;5092373;28;20038;-67
2021/10/05 11:11:30;;;;;;;13.43;6.75;;;;;;;;;;5107516;28;20043;-67
2021/10/05 11:14:01;;;;;;;159.37;111.40;;;;;;;;;;5103719;28;20027;-67
2021/10/05 11:16:29;;;;;;;19.42;9.93;;;;;;;;;;5110185;28;20026;-68
2021/10/05 11:19:08;;;;;;;11.85;6.47;;;;;;;;;;5093642;28;20032;-68
2021/10/05 11:21:36;;;;;;;282.25;114.43;;;;;;;;;;5103542;28;20046;-68
2021/10/05 11:24:02;;;;;;;68.30;30.27;;;;;;;;;;5105909;28;20032;-68
2021/10/05 11:26:33;;;;;;;9.63;5.10;;;;;;;;;;5088894;28;20046;-68
2021/10/05 11:29:01;;;;;;;11.00;5.32;;;;;;;;;;5095214;28;20502;-68
2021/10/05 11:31:28;;;;;;;13.88;5.63;;;;;;;;;;5107539;28;20044;-70
2021/10/05 11:34:03;;;;;;;9.68;5.30;;;;;;;;;;5108516;28;20023;-68
2021/10/05 11:36:29;;;;;;;12.18;5.97;;;;;;;;;;5106629;28;20027;-69
2021/10/05 11:38:55;;;;;;;12.05;5.68;;;;;;;;;;5109701;28;20055;-67
2021/10/05 11:41:21;;;;;;;11.60;6.55;;;;;;;;;;5107980;28;20063;-68
2021/10/05 11:43:49;;;;;;;13.15;6.78;;;;;;;;;;5104278;28;20041;-68
2021/10/05 11:46:17;;;;;;;13.98;7.05;;;;;;;;;;5088189;28;20115;-68
2021/10/05 11:48:47;;;;;;;13.68;6.63;;;;;;;;;;5103555;28;20069;-68
2021/10/05 11:51:14;;;;;;;16.73;7.13;;;;;;;;;;5108325;28;20353;-68
2021/10/05 11:53:40;;;;;;;16.80;9.55;;;;;;;;;;5097268;28;20023;-68
2021/10/05 11:56:14;;;;;;;19.15;10.57;;;;;;;;;;5096407;28;20417;-68
2021/10/05 11:58:41;;;;;;;15.88;10.40;;;;;;;;;;5111501;28;20449;-68
2021/10/05 12:01:33;;;;;;;11.73;5.75;;;;;;;;;;5108702;28;20028;-68
2021/10/05 12:04:06;;;;;;;11.35;4.10;;;;;;;;;;5095669;28;20453;-68
2021/10/05 12:06:34;;;;;;;13.23;5.45;;;;;;;;;;5099982;28;20116;-68
2021/10/05 12:09:01;;;;;;;8.02;3.95;;;;;;;;;;5103963;28;20020;-68
2021/10/05 12:11:37;;;;;;;8.98;4.00;;;;;;;;;;5094489;28;20074;-68
2021/10/05 12:14:03;;;;;;;9.32;3.90;;;;;;;;;;5110319;28;20020;-68
2021/10/05 12:16:29;;;;;;;7.32;3.28;;;;;;;;;;5108967;28;20015;-68
2021/10/05 12:18:56;;;;;;;11.95;5.45;;;;;;;;;;5102280;28;20425;-68
2021/10/05 12:21:22;;;;;;;9.07;5.33;;;;;;;;;;5101752;28;20027;-68
2021/10/05 12:23:56;;;;;;;10.32;4.65;;;;;;;;;;5108744;28;20028;-68
2021/10/05 12:26:22;;;;;;;9.40;4.35;;;;;;;;;;5092613;28;20048;-67
2021/10/05 12:28:55;;;;;;;11.88;5.70;;;;;;;;;;5111616;28;20081;-68
2021/10/05 12:31:21;;;;;;;13.55;5.35;;;;;;;;;;5109630;28;20039;-68
2021/10/05 12:34:14;;;;;;;10.82;5.43;;;;;;;;;;5109839;28;20031;-68
2021/10/05 12:36:40;;;;;;;11.75;5.55;;;;;;;;;;5100921;28;20039;-69
2021/10/05 12:39:13;;;;;;;29.70;26.08;;;;;;;;;;5107845;28;20023;-68
2021/10/05 12:41:40;;;;;;;23.55;16.73;;;;;;;;;;5108004;28;20031;-69
2021/10/05 12:44:17;;;;;;;14.23;7.10;;;;;;;;;;5108533;28;20567;-69
2021/10/05 12:46:57;;;;;;;9.65;5.18;;;;;;;;;;5107210;28;20040;-68
2021/10/05 12:49:24;;;;;;;13.95;6.70;;;;;;;;;;5111228;28;20030;-68
2021/10/05 12:51:50;;;;;;;9.57;5.15;;;;;;;;;;5108127;28;20440;-69
2021/10/05 12:54:16;;;;;;;11.85;6.43;;;;;;;;;;5107296;28;20039;-69
2021/10/05 12:56:43;;;;;;;12.73;4.60;;;;;;;;;;5108477;28;20024;-68
2021/10/05 12:59:10;;;;;;;10.45;4.25;;;;;;;;;;5109113;28;20034;-69
2021/10/05 13:01:37;;;;;;;11.13;4.40;;;;;;;;;;5110711;28;20011;-68
2021/10/05 13:04:06;;;;;;;7.88;4.05;;;;;;;;;;5107685;28;20031;-69
2021/10/05 13:06:33;;;;;;;9.88;4.20;;;;;;;;;;5107700;28;20046;-68
2021/10/05 13:09:00;;;;;;;10.30;4.38;;;;;;;;;;5106333;28;20035;-68
2021/10/05 13:11:27;;;;;;;12.93;4.95;;;;;;;;;;5096055;28;20026;-69
2021/10/05 13:13:52;;;;;;;9.85;4.18;;;;;;;;;;5110121;28;20085;-69
2021/10/05 13:16:18;;;;;;;12.68;4.90;;;;;;;;;;5107900;28;20023;-69
2021/10/05 13:18:44;;;;;;;6.68;4.10;;;;;;;;;;5103898;28;20118;-69
2021/10/05 13:21:10;;;;;;;11.25;3.70;;;;;;;;;;5107690;28;20055;-69
2021/10/05 13:23:36;;;;;;;10.18;4.15;;;;;;;;;;5107987;28;20097;-69
2021/10/05 13:26:03;;;;;;;7.60;3.85;;;;;;;;;;5102654;28;20040;-69
2021/10/05 13:28:29;;;;;;;8.85;3.10;;;;;;;;;;5102879;28;20043;-69
2021/10/05 13:30:55;;;;;;;10.48;3.25;;;;;;;;;;5109403;28;20490;-69
2021/10/05 13:33:21;;;;;;;8.18;2.50;;;;;;;;;;5105246;28;20035;-69
2021/10/05 13:35:47;;;;;;;8.10;2.60;;;;;;;;;;5111280;28;20038;-68
2021/10/05 13:38:15;;;;;;;6.60;2.55;;;;;;;;;;5112272;28;20027;-68
2021/10/05 13:40:44;;;;;;;11.18;3.10;;;;;;;;;;5115115;28;20102;-68
2021/10/05 13:43:10;;;;;;;8.63;2.92;;;;;;;;;;5111605;28;20028;-67
2021/10/05 13:45:36;;;;;;;6.75;2.80;;;;;;;;;;5110628;28;20024;-68
2021/10/05 13:48:02;;;;;;;8.48;2.80;;;;;;;;;;5111442;28;20551;-68
2021/10/05 13:50:28;;;;;;;8.25;2.83;;;;;;;;;;5111286;28;20016;-67
2021/10/05 13:52:54;;;;;;;6.88;2.90;;;;;;;;;;5114080;28;20038;-68
2021/10/05 13:55:20;;;;;;;6.47;2.60;;;;;;;;;;5112439;28;20926;-67
2021/10/05 13:57:46;;;;;;;8.70;3.03;;;;;;;;;;5110474;28;20023;-68
2021/10/05 14:00:12;;;;;;;7.47;2.50;;;;;;;;;;5111361;28;20427;-67
2021/10/05 14:02:38;;;;;;;8.35;2.90;;;;;;;;;;5111403;28;20110;-68
2021/10/05 14:05:05;;;;;;;7.40;2.83;;;;;;;;;;5112504;28;20116;-68
2021/10/05 14:07:31;;;;;;;11.75;3.38;;;;;;;;;;5113007;28;20040;-67
2021/10/05 14:09:57;;;;;;;8.80;3.38;;;;;;;;;;5111075;28;20019;-67
2021/10/05 14:12:23;;;;;;;8.23;4.00;;;;;;;;;;5110611;28;20112;-68
2021/10/05 14:14:49;;;;;;;12.40;4.05;;;;;;;;;;5111122;28;20016;-68
2021/10/05 14:17:17;;;;;;;12.10;3.70;;;;;;;;;;5111586;28;20024;-68
2021/10/05 14:19:44;;;;;;;;;;;;;;;;;;5110513;28;20102;-68
2021/10/05 14:22:10;;;;;;;9.63;5.50;;;;;;;;;;5111109;28;19904;-70
2021/10/05 14:24:36;;;;;;;7.82;4.18;;;;;;;;;;5110016;28;20024;-67
2021/10/05 14:27:02;;;;;;;7.18;3.97;;;;;;;;;;5110511;28;20039;-66
2021/10/05 14:29:28;;;;;;;11.15;5.07;;;;;;;;;;5110455;28;20030;-66
2021/10/05 14:31:54;;;;;;;11.75;5.63;;;;;;;;;;5113568;28;20082;-66
2021/10/05 14:34:20;;;;;;;10.75;4.70;;;;;;;;;;5111537;28;20059;-66
2021/10/05 14:36:46;;;;;;;7.68;3.20;;;;;;;;;;5109936;28;20035;-66
2021/10/05 14:39:12;;;;;;;12.63;6.40;;;;;;;;;;5110395;28;20069;-67